Time;durP1;ratioP1;P1;durP2;ratioP2;P2;SDS_P1;SDS_P2;PMS_P1;PMS_P2;Temp;Humidity;BMP_temperature;BMP_pressure;BME280_temperature;BME280_humidity;BME280_pressure;Samples;Min_cycle;Max_cycle;Signal;HPM_P1;HPM_P2
2024/01/08 00:01:56;;;;;;;;;;;;;;;15.91;47.64;99244.81;5060287;28;1162;-52
2024/01/08 00:04:22;;;;;;;;;;;;;;;15.66;46.82;99252.41;5058354;28;1121;-50
2024/01/08 00:06:47;;;;;;;;;;;;;;;15.59;46.61;99247.84;5053701;28;1103;-48
2024/01/08 00:09:13;;;;;;;;;;;;;;;15.70;48.14;99242.38;5058231;28;1902;-46
2024/01/08 00:11:38;;;;;;;;;;;;;;;17.41;47.92;99264.22;5071421;28;1175;-49
2024/01/08 00:14:04;;;;;;;;;;;;;;;16.31;48.52;99267.72;5057533;28;1111;-48
2024/01/08 00:16:29;;;;;;;;;;;;;;;15.76;48.38;99270.13;5070993;28;1090;-48
2024/01/08 00:18:55;;;;;;;;;;;;;;;15.64;47.09;99272.09;5067841;28;1086;-50
2024/01/08 00:21:21;;;;;;;;;;;;;;;15.52;46.72;99280.22;5067086;28;1091;-47
2024/01/08 00:23:46;;;;;;;;;;;;;;;16.31;48.58;99294.25;5066982;28;1047;-50
2024/01/08 00:26:12;;;;;;;;;;;;;;;17.47;47.68;99294.63;5061048;28;1104;-50
2024/01/08 00:28:37;;;;;;;;;;;;;;;16.14;49.00;99294.06;5067178;28;1898;-49
2024/01/08 00:31:03;;;;;;;;;;;;;;;15.82;47.94;99298.72;5064015;28;1139;-49
2024/01/08 00:33:28;;;;;;;;;;;;;;;15.72;47.87;99306.69;5075922;28;1190;-47
2024/01/08 00:35:54;;;;;;;;;;;;;;;17.14;48.13;99300.50;5077510;28;1086;-46
2024/01/08 00:38:20;;;;;;;;;;;;;;;16.12;48.55;99309.28;5077726;28;1071;-51
2024/01/08 00:40:45;;;;;;;;;;;;;;;15.74;47.78;99315.34;5064119;28;1123;-51
2024/01/08 00:43:11;;;;;;;;;;;;;;;15.57;46.72;99303.63;5076742;28;1150;-47
2024/01/08 00:45:36;;;;;;;;;;;;;;;16.58;48.73;99317.31;5076512;28;1111;-49
2024/01/08 00:48:02;;;;;;;;;;;;;;;17.47;47.45;99308.78;5077288;28;1902;-49
2024/01/08 00:50:28;;;;;;;;;;;;;;;16.30;48.58;99317.31;5076914;28;1047;-48
2024/01/08 00:52:54;;;;;;;;;;;;;;;15.89;48.09;99323.69;5076997;28;1119;-51
2024/01/08 00:55:19;;;;;;;;;;;;;;;15.67;47.37;99325.69;5060697;28;1092;-49
2024/01/08 00:57:45;;;;;;;;;;;;;;;17.36;48.34;99324.97;5068694;28;986;-49
2024/01/08 01:00:10;;;;;;;;;;;;;;;16.39;48.94;99327.06;5076256;28;1102;-49
2024/01/08 01:02:36;;;;;;;;;;;;;;;15.98;47.75;99337.94;5067708;28;1024;-49
2024/01/08 01:05:02;;;;;;;;;;;;;;;15.77;46.99;99346.88;5072308;28;1146;-51
2024/01/08 01:07:27;;;;;;;;;;;;;;;15.58;46.54;99346.91;5067732;28;1054;-47
2024/01/08 01:09:54;;;;;;;;;;;;;;;17.06;48.53;99353.53;5063305;28;1996;-49
2024/01/08 01:12:19;;;;;;;;;;;;;;;16.55;48.47;99353.97;5067146;28;1111;-52
2024/01/08 01:14:45;;;;;;;;;;;;;;;15.96;48.17;99342.53;5070109;28;1140;-47
2024/01/08 01:17:10;;;;;;;;;;;;;;;15.78;48.08;99351.19;5066521;28;1120;-52
2024/01/08 01:19:36;;;;;;;;;;;;;;;17.54;48.24;99351.53;5074529;28;1149;-48
2024/01/08 01:22:01;;;;;;;;;;;;;;;16.56;48.81;99353.81;5059777;28;909;-49
2024/01/08 01:24:27;;;;;;;;;;;;;;;16.06;48.35;99347.00;5059265;28;1072;-50
2024/01/08 01:26:53;;;;;;;;;;;;;;;15.78;47.12;99353.03;5076676;28;1210;-47
2024/01/08 01:29:18;;;;;;;;;;;;;;;15.64;46.48;99355.13;5073943;28;1959;-47
2024/01/08 01:31:44;;;;;;;;;;;;;;;15.54;46.16;99344.53;5065796;28;1021;-50
2024/01/08 01:34:12;;;;;;;;;;;;;;;16.95;48.77;99343.97;5076286;28;1102;-50
2024/01/08 01:36:38;;;;;;;;;;;;;;;16.95;48.51;99347.44;5066963;28;1043;-51
2024/01/08 01:39:04;;;;;;;;;;;;;;;16.05;48.49;99348.78;5072476;28;1215;-46
2024/01/08 01:41:30;;;;;;;;;;;;;;;15.79;47.46;99344.94;5076120;28;1079;-48
2024/01/08 01:43:56;;;;;;;;;;;;;;;15.78;46.81;99345.06;5073339;28;1134;-47
2024/01/08 01:46:25;;;;;;;;;;;;;;;17.35;48.47;99331.28;5069830;28;873;-51
2024/01/08 01:48:51;;;;;;;;;;;;;;;16.53;48.57;99338.19;5075967;28;1913;-51
2024/01/08 01:51:16;;;;;;;;;;;;;;;16.08;47.82;99343.19;5048751;28;1036;-50
2024/01/08 01:53:42;;;;;;;;;;;;;;;15.83;47.21;99344.63;5054585;28;1102;-51
2024/01/08 01:56:07;;;;;;;;;;;;;;;15.54;46.79;99349.00;5080718;28;1066;-50
2024/01/08 01:58:33;;;;;;;;;;;;;;;15.53;46.80;99348.13;5070685;28;1051;-49
2024/01/08 02:00:59;;;;;;;;;;;;;;;17.15;48.58;99350.00;5055364;28;1191;-48
2024/01/08 02:03:24;;;;;;;;;;;;;;;16.96;48.41;99354.44;5044891;28;1375;-51
2024/01/08 02:05:50;;;;;;;;;;;;;;;16.05;48.55;99343.50;5072581;28;1144;-50
2024/01/08 02:08:15;;;;;;;;;;;;;;;15.83;47.69;99353.41;5064383;28;1959;-51
2024/01/08 02:10:42;;;;;;;;;;;;;;;15.61;46.96;99362.50;5068014;28;974;-46
2024/01/08 02:13:08;;;;;;;;;;;;;;;15.45;46.13;99371.84;5048420;28;1033;-48
2024/01/08 02:15:33;;;;;;;;;;;;;;;16.08;48.12;99382.19;5082652;28;1050;-53
2024/01/08 02:17:59;;;;;;;;;;;;;;;17.42;47.72;99385.50;5081505;28;1043;-51
2024/01/08 02:20:24;;;;;;;;;;;;;;;16.21;48.50;99397.78;5082681;28;1027;-49
2024/01/08 02:22:50;;;;;;;;;;;;;;;15.74;48.00;99392.25;5080065;28;1015;-47
2024/01/08 02:25:15;;;;;;;;;;;;;;;15.51;47.08;99391.66;5071333;28;1063;-50
2024/01/08 02:27:41;;;;;;;;;;;;;;;15.61;46.05;99397.81;5049368;28;1039;-50
2024/01/08 02:30:07;;;;;;;;;;;;;;;16.55;48.29;99407.88;5071583;28;1913;-53
2024/01/08 02:32:33;;;;;;;;;;;;;;;16.27;48.27;99402.50;5067088;28;1271;-50
2024/01/08 02:34:59;;;;;;;;;;;;;;;15.84;47.64;99399.34;5068644;28;980;-50
2024/01/08 02:37:24;;;;;;;;;;;;;;;15.56;47.19;99397.41;5078324;28;1147;-53
2024/01/08 02:39:50;;;;;;;;;;;;;;;16.36;48.56;99409.63;5082374;28;1159;-48
2024/01/08 02:42:18;;;;;;;;;;;;;;;17.57;47.24;99400.91;5082063;28;1199;-51
2024/01/08 02:44:44;;;;;;;;;;;;;;;16.24;48.27;99408.09;5082479;28;1087;-50
2024/01/08 02:47:10;;;;;;;;;;;;;;;15.92;47.72;99412.72;5078392;28;908;-49
2024/01/08 02:49:35;;;;;;;;;;;;;;;15.60;47.05;99411.22;5062710;28;1891;-46
2024/01/08 02:52:01;;;;;;;;;;;;;;;15.52;46.12;99417.19;5077941;28;1115;-48
2024/01/08 02:54:26;;;;;;;;;;;;;;;16.95;48.40;99424.47;5072707;28;1063;-47
2024/01/08 02:56:52;;;;;;;;;;;;;;;16.77;48.55;99427.09;5061911;28;960;-46
2024/01/08 02:59:17;;;;;;;;;;;;;;;16.05;48.05;99428.38;5069615;28;909;-50
2024/01/08 03:01:43;;;;;;;;;;;;;;;15.80;47.23;99427.94;5075828;28;1091;-49
2024/01/08 03:04:08;;;;;;;;;;;;;;;15.69;46.94;99431.59;5070804;28;1202;-51
2024/01/08 03:06:34;;;;;;;;;;;;;;;17.26;47.79;99434.00;5080453;28;1019;-52
2024/01/08 03:08:59;;;;;;;;;;;;;;;16.12;48.28;99432.16;5077920;28;1973;-51
2024/01/08 03:11:25;;;;;;;;;;;;;;;15.85;47.36;99425.72;5064870;28;1068;-49
2024/01/08 03:13:51;;;;;;;;;;;;;;;16.20;48.77;99430.63;5069372;28;1155;-50
2024/01/08 03:16:18;;;;;;;;;;;;;;;17.69;47.30;99428.97;5074556;28;1217;-51
2024/01/08 03:18:44;;;;;;;;;;;;;;;16.36;48.23;99437.97;5070044;28;1036;-49
2024/01/08 03:21:10;;;;;;;;;;;;;;;15.99;47.72;99428.94;5074026;28;1120;-49
2024/01/08 03:23:35;;;;;;;;;;;;;;;15.71;46.77;99428.78;5072129;28;871;-49
2024/01/08 03:26:01;;;;;;;;;;;;;;;16.63;48.45;99439.03;5063203;28;1142;-50
2024/01/08 03:28:27;;;;;;;;;;;;;;;16.50;48.32;99439.31;5066931;28;1988;-50
2024/01/08 03:30:52;;;;;;;;;;;;;;;15.97;48.06;99441.47;5077032;28;1071;-48
2024/01/08 03:33:18;;;;;;;;;;;;;;;15.68;47.01;99443.19;5066392;28;1075;-50
2024/01/08 03:35:44;;;;;;;;;;;;;;;15.63;46.50;99446.22;5072873;28;890;-51
2024/01/08 03:38:10;;;;;;;;;;;;;;;16.81;48.27;99454.19;5066210;28;1075;-51
2024/01/08 03:40:35;;;;;;;;;;;;;;;16.37;48.28;99466.19;5065201;28;1191;-46
2024/01/08 03:43:01;;;;;;;;;;;;;;;15.89;47.46;99463.41;5078111;28;1150;-52
2024/01/08 03:45:27;;;;;;;;;;;;;;;15.60;47.06;99467.69;5064266;28;1149;-51
2024/01/08 03:47:52;;;;;;;;;;;;;;;15.50;46.18;99472.16;5067956;28;857;-49
2024/01/08 03:50:18;;;;;;;;;;;;;;;15.63;46.88;99480.69;5078190;28;1914;-49
2024/01/08 03:52:43;;;;;;;;;;;;;;;17.21;47.84;99492.09;5069519;28;1117;-54
2024/01/08 03:55:09;;;;;;;;;;;;;;;16.34;48.26;99507.13;5071433;28;1547;-51
2024/01/08 03:57:35;;;;;;;;;;;;;;;15.86;47.91;99509.63;5058220;28;1059;-50
2024/01/08 04:00:01;;;;;;;;;;;;;;;15.60;47.21;99515.41;5076638;28;905;-50
2024/01/08 04:02:26;;;;;;;;;;;;;;;16.16;48.34;99536.19;5069317;28;1214;-49
2024/01/08 04:04:52;;;;;;;;;;;;;;;16.27;47.27;99379.47;5070960;28;1115;-52
2024/01/08 04:07:17;;;;;;;;;;;;;;;16.25;47.92;99543.28;5058201;28;1056;-50
2024/01/08 04:09:43;;;;;;;;;;;;;;;15.79;47.55;99548.25;5072804;28;1984;-52
2024/01/08 04:12:09;;;;;;;;;;;;;;;15.74;47.97;99551.31;5066639;28;875;-51
2024/01/08 04:14:34;;;;;;;;;;;;;;;17.07;47.31;99567.75;5075413;28;1062;-51
2024/01/08 04:17:00;;;;;;;;;;;;;;;16.00;48.30;99568.53;5073209;28;1372;-50
2024/01/08 04:19:26;;;;;;;;;;;;;;;15.73;46.96;99576.13;5072576;28;1041;-48
2024/01/08 04:21:51;;;;;;;;;;;;;;;15.54;46.41;99580.44;5069490;28;1133;-49
2024/01/08 04:24:17;;;;;;;;;;;;;;;15.65;47.54;99576.81;5071122;28;912;-50
2024/01/08 04:26:42;;;;;;;;;;;;;;;17.41;47.37;99588.53;5064643;28;1129;-50
2024/01/08 04:29:10;;;;;;;;;;;;;;;16.27;48.07;99594.41;5063276;28;1976;-54
2024/01/08 04:31:36;;;;;;;;;;;;;;;15.79;47.73;99594.19;5071366;28;1067;-51
2024/01/08 04:34:02;;;;;;;;;;;;;;;16.79;48.61;99602.22;5069828;28;1056;-55
2024/01/08 04:36:27;;;;;;;;;;;;;;;17.26;47.42;99593.47;5068991;28;1111;-54
2024/01/08 04:38:53;;;;;;;;;;;;;;;16.24;48.36;99607.13;5062533;28;999;-51
2024/01/08 04:41:21;;;;;;;;;;;;;;;15.96;47.41;99597.16;5076446;28;1059;-50
2024/01/08 04:43:47;;;;;;;;;;;;;;;16.07;48.02;99598.00;5076751;28;992;-55
2024/01/08 04:46:13;;;;;;;;;;;;;;;16.92;47.83;99599.25;5071731;28;1308;-54
2024/01/08 04:48:39;;;;;;;;;;;;;;;16.05;48.19;99589.38;5069886;28;1976;-55
2024/01/08 04:51:05;;;;;;;;;;;;;;;15.71;47.39;99574.63;5074736;28;1164;-53
2024/01/08 04:53:34;;;;;;;;;;;;;;;15.65;46.30;99566.22;5063110;28;1994;-51
2024/01/08 04:55:59;;;;;;;;;;;;;;;15.65;45.47;99557.41;5058226;28;1132;-51
2024/01/08 04:58:25;;;;;;;;;;;;;;;15.70;46.18;99541.94;5074543;28;1050;-54
2024/01/08 05:00:50;;;;;;;;;;;;;;;17.27;47.76;99559.78;5071698;28;1040;-48
2024/01/08 05:03:16;;;;;;;;;;;;;;;16.98;47.86;99572.97;5076194;28;1114;-50
2024/01/08 05:05:42;;;;;;;;;;;;;;;16.16;48.15;99578.63;5076636;28;1028;-50
2024/01/08 05:08:07;;;;;;;;;;;;;;;15.86;46.81;99590.97;5076122;28;1116;-48
2024/01/08 05:10:33;;;;;;;;;;;;;;;16.24;48.75;99586.75;5075635;28;1901;-50
2024/01/08 05:12:58;;;;;;;;;;;;;;;16.62;48.12;99586.03;5076300;28;1051;-48
2024/01/08 05:15:24;;;;;;;;;;;;;;;15.91;48.01;99578.16;5075838;28;1123;-51
2024/01/08 05:17:50;;;;;;;;;;;;;;;15.75;46.72;99584.81;5074812;28;1020;-54
2024/01/08 05:20:15;;;;;;;;;;;;;;;16.19;48.11;99590.78;5076287;28;1127;-53
2024/01/08 05:22:41;;;;;;;;;;;;;;;17.81;46.19;99588.31;5074809;28;1077;-51
2024/01/08 05:25:08;;;;;;;;;;;;;;;17.23;46.81;99594.59;5051952;28;2146;-54
2024/01/08 05:27:33;;;;;;;;;;;;;;;16.74;47.88;99595.53;5075752;28;1050;-53
2024/01/08 05:29:59;;;;;;;;;;;;;;;16.53;48.10;99587.72;5075197;28;1974;-56
2024/01/08 05:32:25;;;;;;;;;;;;;;;16.47;48.30;99599.72;5065496;28;1283;-54
2024/01/08 05:34:50;;;;;;;;;;;;;;;17.77;45.53;99608.25;5072614;28;1068;-55
2024/01/08 05:37:16;;;;;;;;;;;;;;;16.86;47.23;99604.19;5076041;28;1047;-52
2024/01/08 05:39:41;;;;;;;;;;;;;;;16.44;48.28;99612.44;5075871;28;1092;-54
2024/01/08 05:42:07;;;;;;;;;;;;;;;16.18;48.61;99605.88;5075853;28;1047;-52
2024/01/08 05:44:34;;;;;;;;;;;;;;;15.98;48.82;99615.56;5075952;28;1086;-55
2024/01/08 05:47:00;;;;;;;;;;;;;;;15.86;49.02;99622.81;5072186;28;1000;-53
2024/01/08 05:49:25;;;;;;;;;;;;;;;15.77;49.35;99627.09;5069320;28;2256;-53
2024/01/08 05:51:51;;;;;;;;;;;;;;;15.64;49.32;99636.13;5075835;28;1055;-55
2024/01/08 05:54:16;;;;;;;;;;;;;;;15.54;49.04;99635.25;5074967;28;1934;-55
2024/01/08 05:56:42;;;;;;;;;;;;;;;15.43;49.48;99646.78;5075772;28;1182;-54
2024/01/08 05:59:08;;;;;;;;;;;;;;;16.08;48.65;99650.94;5061800;28;1094;-54
2024/01/08 06:01:34;;;;;;;;;;;;;;;17.33;45.92;99661.00;5075862;28;1012;-55
2024/01/08 06:04:00;;;;;;;;;;;;;;;16.49;47.61;99660.66;5075538;28;1118;-51
2024/01/08 06:06:25;;;;;;;;;;;;;;;15.98;48.59;99666.81;5075460;28;1173;-53
2024/01/08 06:08:52;;;;;;;;;;;;;;;15.75;49.08;99680.25;5075134;28;1906;-52
2024/01/08 06:11:17;;;;;;;;;;;;;;;15.59;49.60;99682.56;5066990;28;989;-53
2024/01/08 06:13:43;;;;;;;;;;;;;;;15.72;49.55;99698.25;5068906;28;939;-53
2024/01/08 06:16:13;;;;;;;;;;;;;;;17.18;46.10;99703.19;5067027;28;1156;-54
2024/01/08 06:18:39;;;;;;;;;;;;;;;16.67;47.12;99713.91;5075298;28;976;-54
2024/01/08 06:21:04;;;;;;;;;;;;;;;16.05;48.49;99711.41;5062226;28;1039;-56
2024/01/08 06:23:30;;;;;;;;;;;;;;;15.72;49.18;99715.00;5070195;28;1831;-51
2024/01/08 06:25:56;;;;;;;;;;;;;;;15.60;49.07;99719.53;5075059;28;1123;-54
2024/01/08 06:28:21;;;;;;;;;;;;;;;15.64;50.36;99720.13;5074946;28;1976;-51
2024/01/08 06:30:47;;;;;;;;;;;;;;;16.71;47.34;99733.06;5075600;28;1209;-53
2024/01/08 06:33:12;;;;;;;;;;;;;;;18.01;44.82;99734.56;5074896;28;1136;-55
2024/01/08 06:35:40;;;;;;;;;;;;;;;18.25;43.70;99754.53;5066444;28;1055;-48
2024/01/08 06:38:05;;;;;;;;;;;;;;;17.22;45.85;99764.84;5074993;28;1074;-54
2024/01/08 06:40:31;;;;;;;;;;;;;;;16.46;47.49;99764.47;5075015;28;1108;-54
2024/01/08 06:42:56;;;;;;;;;;;;;;;16.15;48.34;99770.63;5078106;28;995;-50
2024/01/08 06:45:22;;;;;;;;;;;;;;;17.65;45.18;99770.66;5078371;28;1040;-53
2024/01/08 06:47:47;;;;;;;;;;;;;;;17.24;45.77;99770.84;5078066;28;1139;-49
2024/01/08 06:50:13;;;;;;;;;;;;;;;16.52;47.38;99769.22;5078716;28;1965;-49
2024/01/08 06:52:39;;;;;;;;;;;;;;;16.91;46.89;99767.59;5078919;28;1052;-55
2024/01/08 06:55:04;;;;;;;;;;;;;;;17.31;45.74;99765.81;5065437;28;1880;-60
2024/01/08 06:57:30;;;;;;;;;;;;;;;16.45;47.84;99776.88;5078829;28;1070;-57
2024/01/08 06:59:55;;;;;;;;;;;;;;;16.29;47.98;99777.41;5073134;28;1036;-49
2024/01/08 07:02:21;;;;;;;;;;;;;;;16.60;47.49;99793.28;5078713;28;1022;-62
2024/01/08 07:04:47;;;;;;;;;;;;;;;17.33;46.43;99795.75;5059708;28;1016;-52
2024/01/08 07:07:12;;;;;;;;;;;;;;;18.65;43.47;99806.56;5066233;28;1107;-52
2024/01/08 07:09:38;;;;;;;;;;;;;;;17.53;45.33;99799.25;5078473;28;1967;-50
2024/01/08 07:12:04;;;;;;;;;;;;;;;16.67;47.38;99820.13;5071223;28;1047;-56
2024/01/08 07:14:31;;;;;;;;;;;;;;;16.23;48.19;99815.91;5073113;28;1072;-56
2024/01/08 07:16:56;;;;;;;;;;;;;;;18.44;44.01;99826.31;5078699;28;1004;-51
2024/01/08 07:19:22;;;;;;;;;;;;;;;18.33;43.51;99824.66;5078277;28;1047;-56
2024/01/08 07:21:47;;;;;;;;;;;;;;;17.20;45.96;99833.25;5078162;28;1045;-55
2024/01/08 07:24:14;;;;;;;;;;;;;;;16.69;47.18;99846.53;5077220;28;1899;-54
2024/01/08 07:26:39;;;;;;;;;;;;;;;16.28;47.86;99836.78;5059954;28;1080;-51
2024/01/08 07:29:06;;;;;;;;;;;;;;;17.68;45.39;99852.84;5077837;28;1981;-54
2024/01/08 07:31:31;;;;;;;;;;;;;;;17.59;45.16;99849.19;5077939;28;1040;-57
2024/01/08 07:33:58;;;;;;;;;;;;;;;16.73;47.26;99861.25;5077952;28;1143;-57
2024/01/08 07:36:23;;;;;;;;;;;;;;;16.44;47.59;99861.97;5077309;28;916;-53
2024/01/08 07:38:49;;;;;;;;;;;;;;;16.28;48.47;99866.78;5077777;28;1015;-52
2024/01/08 07:41:15;;;;;;;;;;;;;;;17.78;45.13;99859.97;5077818;28;1110;-53
2024/01/08 07:43:40;;;;;;;;;;;;;;;18.12;43.80;99872.78;5078151;28;1116;-52
2024/01/08 07:46:06;;;;;;;;;;;;;;;17.06;46.39;99867.19;5078009;28;1237;-49
2024/01/08 07:48:31;;;;;;;;;;;;;;;16.52;47.76;99870.09;5069340;28;1984;-53
2024/01/08 07:50:57;;;;;;;;;;;;;;;16.26;48.11;99875.84;5078010;28;1063;-57
2024/01/08 07:53:22;;;;;;;;;;;;;;;16.57;47.72;99873.19;5076499;28;1106;-53
2024/01/08 07:55:49;;;;;;;;;;;;;;;17.90;44.66;99876.63;5073276;28;2202;-53
2024/01/08 07:58:15;;;;;;;;;;;;;;;17.02;46.18;99863.97;5077857;28;1353;-55
2024/01/08 08:00:41;;;;;;;;;;;;;;;16.50;47.63;99874.69;5060965;28;1062;-53
2024/01/08 08:03:07;;;;;;;;;;;;;;;16.20;48.12;99879.03;5067398;28;1211;-56
2024/01/08 08:05:33;;;;;;;;;;;;;;;16.77;47.23;99878.56;5077821;28;1218;-51
2024/01/08 08:07:58;;;;;;;;;;;;;;;17.89;44.47;99896.19;5077302;28;995;-49
2024/01/08 08:10:24;;;;;;;;;;;;;;;16.98;46.39;99899.75;5077142;28;1980;-49
2024/01/08 08:12:51;;;;;;;;;;;;;;;16.45;47.60;99901.66;5070184;28;1039;-53
2024/01/08 08:15:17;;;;;;;;;;;;;;;16.10;48.46;99919.59;5071718;28;1118;-53
2024/01/08 08:17:43;;;;;;;;;;;;;;;17.61;45.15;99920.88;5062031;28;1040;-53
2024/01/08 08:20:10;;;;;;;;;;;;;;;17.33;45.26;99936.66;5075772;28;1297;-53
2024/01/08 08:22:36;;;;;;;;;;;;;;;16.60;47.15;99935.84;5075934;28;1305;-55
2024/01/08 08:25:01;;;;;;;;;;;;;;;16.21;48.00;99923.19;5064275;28;1853;-57
2024/01/08 08:27:27;;;;;;;;;;;;;;;17.00;46.48;99950.94;5072463;28;1055;-57
2024/01/08 08:29:54;;;;;;;;;;;;;;;17.88;44.17;99953.91;5065353;28;1905;-57
2024/01/08 08:32:19;;;;;;;;;;;;;;;16.72;46.09;99923.28;5076211;28;1166;-57
2024/01/08 08:34:45;;;;;;;;;;;;;;;16.41;47.48;99945.38;5077032;28;1344;-57
2024/01/08 08:37:11;;;;;;;;;;;;;;;16.72;46.94;99952.50;5076229;28;1091;-58
2024/01/08 08:39:36;;;;;;;;;;;;;;;17.98;43.85;99953.91;5076468;28;1214;-54
2024/01/08 08:42:05;;;;;;;;;;;;;;;16.98;45.96;99965.34;5076055;28;1043;-58
2024/01/08 08:44:31;;;;;;;;;;;;;;;16.43;47.28;99967.31;5075860;28;1174;-56
2024/01/08 08:46:57;;;;;;;;;;;;;;;16.09;48.08;99949.78;5076349;28;1062;-56
2024/01/08 08:49:22;;;;;;;;;;;;;;;17.08;45.97;99901.59;5063130;28;1937;-55
2024/01/08 08:51:48;;;;;;;;;;;;;;;17.95;43.73;99917.75;5075881;28;1076;-53
2024/01/08 08:54:14;;;;;;;;;;;;;;;16.95;45.81;99952.34;5075340;28;2065;-56
2024/01/08 08:56:40;;;;;;;;;;;;;;;16.41;47.22;99958.66;5076234;28;1135;-60
2024/01/08 08:59:05;;;;;;;;;;;;;;;16.04;48.02;99954.63;5054537;28;1136;-56
2024/01/08 09:01:31;;;;;;;;;;;;;;;17.37;45.25;99956.66;5074041;28;1285;-56
2024/01/08 09:03:56;;;;;;;;;;;;;;;17.62;44.50;99962.44;5067933;28;1122;-56
2024/01/08 09:06:30;;;;;;;;;;;;;;;16.73;46.19;99965.66;5075359;28;1293;-60
2024/01/08 09:08:56;;;;;;;;;;;;;;;16.32;47.06;99973.53;5068840;28;1974;-60
2024/01/08 09:11:21;;;;;;;;;;;;;;;16.03;48.08;99979.47;5075969;28;1317;-52
2024/01/08 09:13:47;;;;;;;;;;;;;;;17.32;45.32;99994.28;5073665;28;1051;-61
2024/01/08 09:16:14;;;;;;;;;;;;;;;17.42;44.40;99990.81;5064525;28;1093;-59
2024/01/08 09:18:42;;;;;;;;;;;;;;;16.64;46.31;99996.50;5074325;28;1171;-57
2024/01/08 09:21:08;;;;;;;;;;;;;;;16.21;47.52;99998.34;5074278;28;1325;-56
2024/01/08 09:23:33;;;;;;;;;;;;;;;16.03;47.72;100013.97;5067825;28;1904;-57
2024/01/08 09:25:59;;;;;;;;;;;;;;;17.56;44.39;100006.38;5065009;28;1505;-57
2024/01/08 09:28:25;;;;;;;;;;;;;;;17.30;44.64;99998.06;5074825;28;1902;-56
2024/01/08 09:30:51;;;;;;;;;;;;;;;16.55;46.27;100005.25;5074820;28;1043;-57
2024/01/08 09:33:17;;;;;;;;;;;;;;;16.21;47.30;100008.94;5074809;28;1305;-54
2024/01/08 09:35:43;;;;;;;;;;;;;;;16.88;45.96;100013.13;5070175;28;1007;-54
2024/01/08 09:38:08;;;;;;;;;;;;;;;17.78;43.65;100028.41;5057237;28;1067;-56
2024/01/08 09:40:34;;;;;;;;;;;;;;;16.82;45.59;100026.91;5065601;28;1064;-54
2024/01/08 09:43:00;;;;;;;;;;;;;;;16.08;46.81;99995.84;5070224;28;1085;-53
2024/01/08 09:45:26;;;;;;;;;;;;;;;16.48;47.03;100022.69;5074877;28;1166;-54
2024/01/08 09:47:53;;;;;;;;;;;;;;;17.87;43.67;100026.72;5074624;28;1079;-53
2024/01/08 09:50:18;;;;;;;;;;;;;;;17.10;45.00;100020.09;5069039;28;1922;-54
2024/01/08 09:52:44;;;;;;;;;;;;;;;16.47;46.27;100034.25;5057438;28;1024;-54
2024/01/08 09:55:12;;;;;;;;;;;;;;;16.22;47.06;100041.63;5074986;28;2157;-54
2024/01/08 09:57:38;;;;;;;;;;;;;;;17.21;45.03;100032.47;5075683;28;1207;-53
2024/01/08 10:00:05;;;;;;;;;;;;;;;17.61;43.88;100048.53;5075555;28;1016;-55
2024/01/08 10:02:37;;;;;;;;;;;;;;;16.63;45.94;100047.91;5061969;28;1092;-56
2024/01/08 10:05:05;;;;;;;;;;;;;;;16.30;46.70;100043.66;5075031;28;1000;-55
2024/01/08 10:07:32;;;;;;;;;;;;;;;17.46;44.35;100045.41;5075559;28;1079;-52
2024/01/08 10:10:00;;;;;;;;;;;;;;;17.44;44.15;100047.34;5074587;28;2251;-54
2024/01/08 10:12:25;;;;;;;;;;;;;;;16.64;45.92;100049.63;5057391;28;1146;-54
2024/01/08 10:14:51;;;;;;;;;;;;;;;16.25;46.82;100054.63;5068821;28;934;-56
2024/01/08 10:17:20;;;;;;;;;;;;;;;16.17;47.37;100063.22;5077017;28;1005;-55
2024/01/08 10:19:46;;;;;;;;;;;;;;;17.70;43.84;100065.50;5079477;28;1182;-55
2024/01/08 10:22:12;;;;;;;;;;;;;;;17.16;44.81;100060.41;5078032;28;1185;-57
2024/01/08 10:24:38;;;;;;;;;;;;;;;16.47;46.05;100056.34;5074797;28;2026;-54
2024/01/08 10:27:04;;;;;;;;;;;;;;;16.16;46.94;100057.06;5073799;28;1091;-56
2024/01/08 10:29:30;;;;;;;;;;;;;;;17.29;44.61;100062.81;5078956;28;1902;-56
2024/01/08 10:31:55;;;;;;;;;;;;;;;17.50;43.87;100074.25;5077695;28;1153;-55
2024/01/08 10:34:21;;;;;;;;;;;;;;;16.67;45.81;100071.56;5077561;28;1155;-53
2024/01/08 10:36:47;;;;;;;;;;;;;;;16.25;46.62;100068.75;5078623;28;1371;-56
2024/01/08 10:39:12;;;;;;;;;;;;;;;16.89;45.85;100074.09;5049285;28;931;-57
2024/01/08 10:41:38;;;;;;;;;;;;;;;17.85;43.27;100063.28;5061043;28;1043;-50
2024/01/08 10:44:03;;;;;;;;;;;;;;;16.90;45.39;100058.97;5077460;28;1026;-52
2024/01/08 10:46:33;;;;;;;;;;;;;;;16.37;46.67;100066.88;5078588;28;1142;-57
2024/01/08 10:48:59;;;;;;;;;;;;;;;16.12;47.19;100076.03;5059778;28;1968;-56
2024/01/08 10:51:24;;;;;;;;;;;;;;;16.73;46.18;100084.34;5052876;28;1096;-53
2024/01/08 10:53:50;;;;;;;;;;;;;;;17.95;43.03;100074.75;5059050;28;1845;-51
2024/01/08 10:56:16;;;;;;;;;;;;;;;16.97;45.09;100078.75;5060105;28;1301;-52
2024/01/08 10:59:02;;;;;;;;;;;;;;;16.50;46.16;100082.63;5078105;28;1364;-55
2024/01/08 11:01:29;;;;;;;;;;;;;;;16.16;47.22;100083.59;5064143;28;1530;-52
2024/01/08 11:03:56;;;;;;;;;;;;;;;17.64;44.00;100072.19;5055258;28;1035;-52
2024/01/08 11:06:21;;;;;;;;;;;;;;;17.36;44.12;100086.09;5078472;28;1128;-54
2024/01/08 11:08:48;;;;;;;;;;;;;;;16.58;45.87;100087.28;5077280;28;1910;-55
2024/01/08 11:11:15;;;;;;;;;;;;;;;16.21;47.10;100093.00;5056692;28;1202;-55
2024/01/08 11:13:40;;;;;;;;;;;;;;;16.72;45.98;100101.22;5066203;28;1106;-55
2024/01/08 11:16:06;;;;;;;;;;;;;;;17.86;43.19;100108.38;5077423;28;1067;-54
2024/01/08 11:18:32;;;;;;;;;;;;;;;16.86;45.41;100108.03;5072923;28;1090;-56
2024/01/08 11:20:59;;;;;;;;;;;;;;;16.37;46.30;100119.13;5077824;28;1474;-56
2024/01/08 11:23:34;;;;;;;;;;;;;;;16.11;47.02;100132.72;5077172;28;1815;-53
2024/01/08 11:26:18;;;;;;;;;;;;;;;17.58;43.92;100123.28;5059319;28;1140;-55
2024/01/08 11:28:44;;;;;;;;;;;;;;;17.11;44.59;100116.63;5072607;28;1906;-55
2024/01/08 11:31:10;;;;;;;;;;;;;;;16.47;46.08;100128.03;5059026;28;1314;-57
2024/01/08 11:34:14;;;;;;;;;;;;;;;16.16;46.72;100122.59;5077222;28;1091;-56
2024/01/08 11:36:47;;;;;;;;;;;;;;;17.42;44.37;100123.75;5035791;28;1357;-56
2024/01/08 11:39:16;;;;;;;;;;;;;;;17.16;44.42;100125.03;5035444;28;1142;-54
2024/01/08 11:41:42;;;;;;;;;;;;;;;16.50;45.89;100124.25;5052764;28;1382;-56
2024/01/08 11:44:07;;;;;;;;;;;;;;;16.17;46.60;100126.91;5053380;28;1134;-53
2024/01/08 11:46:34;;;;;;;;;;;;;;;17.49;44.06;100128.41;5077653;28;1349;-57
2024/01/08 11:49:00;;;;;;;;;;;;;;;17.57;43.49;100133.06;5077664;28;1903;-54
2024/01/08 11:51:26;;;;;;;;;;;;;;;16.64;45.61;100139.06;5064165;28;1301;-54
2024/01/08 11:53:52;;;;;;;;;;;;;;;16.33;46.27;100144.25;5058008;28;1936;-54
2024/01/08 11:56:17;;;;;;;;;;;;;;;16.47;46.18;100164.34;5076414;28;1317;-50
2024/01/08 11:58:43;;;;;;;;;;;;;;;17.85;43.12;100157.22;5077071;28;1051;-55
2024/01/08 12:01:18;;;;;;;;;;;;;;;16.97;44.67;100168.22;5077382;28;1116;-56
2024/01/08 12:03:44;;;;;;;;;;;;;;;16.36;46.17;100179.34;5076564;28;1169;-53
2024/01/08 12:06:09;;;;;;;;;;;;;;;16.48;46.48;100187.28;5059361;28;1060;-54
2024/01/08 12:08:35;;;;;;;;;;;;;;;17.90;42.97;100196.72;5076549;28;1905;-55
2024/01/08 12:11:01;;;;;;;;;;;;;;;17.06;44.44;100206.47;5076345;28;1337;-51
2024/01/08 12:13:26;;;;;;;;;;;;;;;16.40;46.13;100195.84;5076221;28;1321;-52
2024/01/08 12:15:52;;;;;;;;;;;;;;;16.09;46.57;100206.28;5076712;28;1024;-50
2024/01/08 12:18:18;;;;;;;;;;;;;;;17.20;44.44;100205.38;5076428;28;1309;-48
2024/01/08 12:20:46;;;;;;;;;;;;;;;17.77;43.04;100214.78;5076985;28;1344;-54
2024/01/08 12:23:12;;;;;;;;;;;;;;;16.77;45.11;100213.25;5076099;28;1265;-50
2024/01/08 12:25:38;;;;;;;;;;;;;;;16.30;46.41;100232.91;5074319;28;2111;-50
2024/01/08 12:28:03;;;;;;;;;;;;;;;16.64;46.00;100243.47;5076687;28;988;-51
2024/01/08 12:30:29;;;;;;;;;;;;;;;17.92;42.75;100250.66;5076659;28;1961;-49
2024/01/08 12:32:57;;;;;;;;;;;;;;;16.95;44.60;100265.84;5075840;28;1106;-52
2024/01/08 12:35:23;;;;;;;;;;;;;;;16.44;45.82;100268.13;5075805;28;1266;-53
2024/01/08 12:37:49;;;;;;;;;;;;;;;16.09;46.85;100288.56;5075928;28;1217;-52
2024/01/08 12:40:14;;;;;;;;;;;;;;;17.34;44.21;100282.13;5076553;28;1007;-49
2024/01/08 12:42:40;;;;;;;;;;;;;;;17.44;43.25;100284.00;5076558;28;1143;-54
2024/01/08 12:45:07;;;;;;;;;;;;;;;16.62;45.40;100289.72;5076872;28;1107;-53
2024/01/08 12:47:32;;;;;;;;;;;;;;;16.21;46.46;100297.38;5076288;28;1323;-49
2024/01/08 12:49:58;;;;;;;;;;;;;;;16.66;45.44;100296.47;5074745;28;1977;-52